sensor_id;sensor_type;location;lat;lon;timestamp;P1;durP1;ratioP1;P2;durP2;ratioP2
35977;SDS011;22056;0.000;0.000;2023-04-03T00:00:51;0.20;;;0.20;;
35977;SDS011;22056;0.000;0.000;2023-04-03T00:03:17;0.20;;;0.20;;
35977;SDS011;22056;0.000;0.000;2023-04-03T00:05:44;0.20;;;0.20;;
35977;SDS011;22056;0.000;0.000;2023-04-03T00:08:11;0.20;;;0.20;;
35977;SDS011;22056;0.000;0.000;2023-04-03T00:10:37;0.22;;;0.20;;
35977;SDS011;22056;0.000;0.000;2023-04-03T00:13:04;0.20;;;0.20;;
35977;SDS011;22056;0.000;0.000;2023-04-03T00:15:31;0.20;;;0.20;;
35977;SDS011;22056;0.000;0.000;2023-04-03T00:17:57;0.20;;;0.20;;
35977;SDS011;22056;0.000;0.000;2023-04-03T00:20:23;0.20;;;0.20;;
35977;SDS011;22056;0.000;0.000;2023-04-03T00:22:49;0.20;;;0.20;;
35977;SDS011;22056;0.000;0.000;2023-04-03T00:25:16;0.13;;;0.13;;
35977;SDS011;22056;0.000;0.000;2023-04-03T00:27:42;0.20;;;0.20;;
35977;SDS011;22056;0.000;0.000;2023-04-03T00:30:09;0.28;;;0.20;;
35977;SDS011;22056;0.000;0.000;2023-04-03T00:32:35;0.20;;;0.20;;
35977;SDS011;22056;0.000;0.000;2023-04-03T00:35:02;0.20;;;0.20;;
35977;SDS011;22056;0.000;0.000;2023-04-03T00:37:28;0.20;;;0.20;;
35977;SDS011;22056;0.000;0.000;2023-04-03T00:39:54;0.20;;;0.20;;
35977;SDS011;22056;0.000;0.000;2023-04-03T00:42:20;0.17;;;0.17;;
35977;SDS011;22056;0.000;0.000;2023-04-03T00:47:13;0.47;;;0.20;;
35977;SDS011;22056;0.000;0.000;2023-04-03T00:49:41;0.20;;;0.20;;
35977;SDS011;22056;0.000;0.000;2023-04-03T00:52:10;0.20;;;0.20;;
35977;SDS011;22056;0.000;0.000;2023-04-03T00:54:37;0.20;;;0.20;;
35977;SDS011;22056;0.000;0.000;2023-04-03T00:57:05;0.20;;;0.20;;
35977;SDS011;22056;0.000;0.000;2023-04-03T00:59:33;0.17;;;0.17;;
35977;SDS011;22056;0.000;0.000;2023-04-03T01:02:00;0.20;;;0.20;;
35977;SDS011;22056;0.000;0.000;2023-04-03T01:04:30;0.20;;;0.20;;
35977;SDS011;22056;0.000;0.000;2023-04-03T01:06:57;0.20;;;0.20;;
35977;SDS011;22056;0.000;0.000;2023-04-03T01:09:24;0.30;;;0.20;;
35977;SDS011;22056;0.000;0.000;2023-04-03T01:11:51;0.20;;;0.20;;
35977;SDS011;22056;0.000;0.000;2023-04-03T01:14:17;0.22;;;0.20;;
35977;SDS011;22056;0.000;0.000;2023-04-03T01:16:51;0.20;;;0.20;;
35977;SDS011;22056;0.000;0.000;2023-04-03T01:19:18;0.10;;;0.10;;
35977;SDS011;22056;0.000;0.000;2023-04-03T01:24:31;0.20;;;0.20;;
35977;SDS011;22056;0.000;0.000;2023-04-03T01:26:58;0.40;;;0.30;;
35977;SDS011;22056;0.000;0.000;2023-04-03T01:29:24;0.20;;;0.20;;
35977;SDS011;22056;0.000;0.000;2023-04-03T01:31:55;0.20;;;0.20;;
35977;SDS011;22056;0.000;0.000;2023-04-03T01:34:22;0.20;;;0.20;;
35977;SDS011;22056;0.000;0.000;2023-04-03T01:36:48;0.17;;;0.17;;
35977;SDS011;22056;0.000;0.000;2023-04-03T01:39:15;0.20;;;0.20;;
35977;SDS011;22056;0.000;0.000;2023-04-03T01:41:41;0.20;;;0.20;;
35977;SDS011;22056;0.000;0.000;2023-04-03T01:44:07;0.20;;;0.20;;
35977;SDS011;22056;0.000;0.000;2023-04-03T01:46:34;0.15;;;0.15;;
35977;SDS011;22056;0.000;0.000;2023-04-03T01:49:00;0.20;;;0.20;;
35977;SDS011;22056;0.000;0.000;2023-04-03T01:51:26;0.20;;;0.20;;
35977;SDS011;22056;0.000;0.000;2023-04-03T01:53:52;0.20;;;0.20;;
35977;SDS011;22056;0.000;0.000;2023-04-03T01:56:19;0.20;;;0.20;;
35977;SDS011;22056;0.000;0.000;2023-04-03T01:58:45;0.20;;;0.20;;
35977;SDS011;22056;0.000;0.000;2023-04-03T02:01:11;0.20;;;0.20;;
35977;SDS011;22056;0.000;0.000;2023-04-03T02:03:37;0.20;;;0.20;;
35977;SDS011;22056;0.000;0.000;2023-04-03T02:06:03;0.30;;;0.30;;
35977;SDS011;22056;0.000;0.000;2023-04-03T02:08:30;0.20;;;0.20;;
35977;SDS011;22056;0.000;0.000;2023-04-03T02:10:56;0.20;;;0.20;;
35977;SDS011;22056;0.000;0.000;2023-04-03T02:13:22;0.20;;;0.20;;
35977;SDS011;22056;0.000;0.000;2023-04-03T02:15:48;0.20;;;0.20;;
35977;SDS011;22056;0.000;0.000;2023-04-03T02:18:14;0.20;;;0.20;;
35977;SDS011;22056;0.000;0.000;2023-04-03T02:20:41;0.20;;;0.20;;
35977;SDS011;22056;0.000;0.000;2023-04-03T02:23:07;0.20;;;0.20;;
35977;SDS011;22056;0.000;0.000;2023-04-03T02:25:33;0.28;;;0.28;;
35977;SDS011;22056;0.000;0.000;2023-04-03T02:27:59;0.38;;;0.30;;
35977;SDS011;22056;0.000;0.000;2023-04-03T02:30:25;0.20;;;0.20;;
35977;SDS011;22056;0.000;0.000;2023-04-03T02:32:52;0.20;;;0.20;;
35977;SDS011;22056;0.000;0.000;2023-04-03T02:35:18;0.20;;;0.20;;
35977;SDS011;22056;0.000;0.000;2023-04-03T02:37:44;0.25;;;0.20;;
35977;SDS011;22056;0.000;0.000;2023-04-03T02:40:10;0.20;;;0.20;;
35977;SDS011;22056;0.000;0.000;2023-04-03T02:42:37;0.20;;;0.20;;
35977;SDS011;22056;0.000;0.000;2023-04-03T02:45:03;0.10;;;0.10;;
35977;SDS011;22056;0.000;0.000;2023-04-03T02:47:30;0.28;;;0.20;;
35977;SDS011;22056;0.000;0.000;2023-04-03T02:49:56;0.20;;;0.20;;
35977;SDS011;22056;0.000;0.000;2023-04-03T02:52:22;0.20;;;0.20;;
35977;SDS011;22056;0.000;0.000;2023-04-03T02:54:48;0.10;;;0.10;;
35977;SDS011;22056;0.000;0.000;2023-04-03T02:57:14;0.20;;;0.20;;
35977;SDS011;22056;0.000;0.000;2023-04-03T02:59:40;0.20;;;0.20;;
35977;SDS011;22056;0.000;0.000;2023-04-03T03:02:07;0.10;;;0.10;;
35977;SDS011;22056;0.000;0.000;2023-04-03T03:04:33;0.38;;;0.30;;
35977;SDS011;22056;0.000;0.000;2023-04-03T03:06:59;0.30;;;0.30;;
35977;SDS011;22056;0.000;0.000;2023-04-03T03:09:26;0.20;;;0.20;;
35977;SDS011;22056;0.000;0.000;2023-04-03T03:11:52;0.20;;;0.20;;
35977;SDS011;22056;0.000;0.000;2023-04-03T03:14:19;0.10;;;0.10;;
35977;SDS011;22056;0.000;0.000;2023-04-03T03:16:45;0.17;;;0.17;;
35977;SDS011;22056;0.000;0.000;2023-04-03T03:19:11;0.20;;;0.20;;
35977;SDS011;22056;0.000;0.000;2023-04-03T03:21:38;0.38;;;0.20;;
35977;SDS011;22056;0.000;0.000;2023-04-03T03:24:04;0.25;;;0.25;;
35977;SDS011;22056;0.000;0.000;2023-04-03T03:26:30;0.40;;;0.28;;
35977;SDS011;22056;0.000;0.000;2023-04-03T03:28:56;0.22;;;0.20;;
35977;SDS011;22056;0.000;0.000;2023-04-03T03:31:22;0.20;;;0.20;;
35977;SDS011;22056;0.000;0.000;2023-04-03T03:33:48;0.20;;;0.20;;
35977;SDS011;22056;0.000;0.000;2023-04-03T03:36:15;0.20;;;0.20;;
35977;SDS011;22056;0.000;0.000;2023-04-03T03:38:41;0.20;;;0.20;;
35977;SDS011;22056;0.000;0.000;2023-04-03T03:41:07;0.20;;;0.20;;
35977;SDS011;22056;0.000;0.000;2023-04-03T03:43:33;0.20;;;0.20;;
35977;SDS011;22056;0.000;0.000;2023-04-03T03:45:59;0.28;;;0.28;;
35977;SDS011;22056;0.000;0.000;2023-04-03T03:48:25;0.20;;;0.20;;
35977;SDS011;22056;0.000;0.000;2023-04-03T03:50:52;0.20;;;0.20;;
35977;SDS011;22056;0.000;0.000;2023-04-03T03:53:18;0.10;;;0.10;;
35977;SDS011;22056;0.000;0.000;2023-04-03T03:55:44;0.28;;;0.28;;
35977;SDS011;22056;0.000;0.000;2023-04-03T03:58:10;0.20;;;0.20;;
35977;SDS011;22056;0.000;0.000;2023-04-03T04:03:17;0.30;;;0.20;;
35977;SDS011;22056;0.000;0.000;2023-04-03T04:05:43;0.30;;;0.25;;
35977;SDS011;22056;0.000;0.000;2023-04-03T04:08:09;0.25;;;0.20;;
35977;SDS011;22056;0.000;0.000;2023-04-03T04:10:35;0.20;;;0.20;;
35977;SDS011;22056;0.000;0.000;2023-04-03T04:13:02;0.30;;;0.20;;
35977;SDS011;22056;0.000;0.000;2023-04-03T04:15:28;0.20;;;0.20;;
35977;SDS011;22056;0.000;0.000;2023-04-03T04:17:56;0.50;;;0.30;;
35977;SDS011;22056;0.000;0.000;2023-04-03T04:20:22;0.20;;;0.20;;
35977;SDS011;22056;0.000;0.000;2023-04-03T04:22:48;0.73;;;0.30;;
35977;SDS011;22056;0.000;0.000;2023-04-03T04:25:14;0.20;;;0.20;;
35977;SDS011;22056;0.000;0.000;2023-04-03T04:27:40;0.30;;;0.30;;
35977;SDS011;22056;0.000;0.000;2023-04-03T04:30:07;0.57;;;0.28;;
35977;SDS011;22056;0.000;0.000;2023-04-03T04:32:33;0.20;;;0.20;;
35977;SDS011;22056;0.000;0.000;2023-04-03T04:34:59;0.65;;;0.30;;
35977;SDS011;22056;0.000;0.000;2023-04-03T04:37:26;0.20;;;0.20;;
35977;SDS011;22056;0.000;0.000;2023-04-03T04:39:52;1.38;;;0.30;;
35977;SDS011;22056;0.000;0.000;2023-04-03T04:42:18;0.20;;;0.20;;
35977;SDS011;22056;0.000;0.000;2023-04-03T04:44:44;0.80;;;0.30;;
35977;SDS011;22056;0.000;0.000;2023-04-03T04:47:10;1.40;;;0.30;;
35977;SDS011;22056;0.000;0.000;2023-04-03T04:49:36;0.30;;;0.30;;
35977;SDS011;22056;0.000;0.000;2023-04-03T04:52:02;1.42;;;0.30;;
35977;SDS011;22056;0.000;0.000;2023-04-03T04:54:29;0.75;;;0.35;;
35977;SDS011;22056;0.000;0.000;2023-04-03T04:56:55;0.88;;;0.40;;
35977;SDS011;22056;0.000;0.000;2023-04-03T04:59:21;1.08;;;0.63;;
35977;SDS011;22056;0.000;0.000;2023-04-03T05:01:47;2.15;;;0.30;;
35977;SDS011;22056;0.000;0.000;2023-04-03T05:04:13;0.82;;;0.40;;
35977;SDS011;22056;0.000;0.000;2023-04-03T05:06:40;1.42;;;0.43;;
35977;SDS011;22056;0.000;0.000;2023-04-03T05:09:06;1.13;;;0.50;;
35977;SDS011;22056;0.000;0.000;2023-04-03T05:11:33;1.17;;;0.52;;
35977;SDS011;22056;0.000;0.000;2023-04-03T05:14:00;0.50;;;0.30;;
35977;SDS011;22056;0.000;0.000;2023-04-03T05:16:26;2.13;;;0.50;;
35977;SDS011;22056;0.000;0.000;2023-04-03T05:18:52;1.60;;;0.30;;
35977;SDS011;22056;0.000;0.000;2023-04-03T05:21:18;1.30;;;0.77;;
35977;SDS011;22056;0.000;0.000;2023-04-03T05:23:46;0.60;;;0.40;;
35977;SDS011;22056;0.000;0.000;2023-04-03T05:26:12;2.15;;;0.50;;
35977;SDS011;22056;0.000;0.000;2023-04-03T05:28:38;2.30;;;0.47;;
35977;SDS011;22056;0.000;0.000;2023-04-03T05:31:05;2.38;;;0.52;;
35977;SDS011;22056;0.000;0.000;2023-04-03T05:33:31;1.13;;;0.50;;
35977;SDS011;22056;0.000;0.000;2023-04-03T05:36:01;2.25;;;0.40;;
35977;SDS011;22056;0.000;0.000;2023-04-03T05:38:27;2.65;;;0.63;;
35977;SDS011;22056;0.000;0.000;2023-04-03T05:40:54;2.08;;;0.40;;
35977;SDS011;22056;0.000;0.000;2023-04-03T05:43:20;1.20;;;0.38;;
35977;SDS011;22056;0.000;0.000;2023-04-03T05:45:47;2.60;;;0.50;;
35977;SDS011;22056;0.000;0.000;2023-04-03T05:48:13;3.78;;;0.63;;
35977;SDS011;22056;0.000;0.000;2023-04-03T05:50:39;1.73;;;0.50;;
35977;SDS011;22056;0.000;0.000;2023-04-03T05:53:07;3.42;;;0.63;;
35977;SDS011;22056;0.000;0.000;2023-04-03T05:55:38;1.48;;;0.70;;
35977;SDS011;22056;0.000;0.000;2023-04-03T05:58:04;3.58;;;0.55;;
35977;SDS011;22056;0.000;0.000;2023-04-03T06:00:30;3.58;;;0.80;;
35977;SDS011;22056;0.000;0.000;2023-04-03T06:02:56;0.77;;;0.50;;
35977;SDS011;22056;0.000;0.000;2023-04-03T06:05:22;2.22;;;0.50;;
35977;SDS011;22056;0.000;0.000;2023-04-03T06:07:49;3.15;;;0.70;;
35977;SDS011;22056;0.000;0.000;2023-04-03T06:10:15;1.88;;;0.60;;
35977;SDS011;22056;0.000;0.000;2023-04-03T06:12:42;2.50;;;0.70;;
35977;SDS011;22056;0.000;0.000;2023-04-03T06:15:08;1.38;;;0.50;;
35977;SDS011;22056;0.000;0.000;2023-04-03T06:17:35;3.60;;;0.73;;
35977;SDS011;22056;0.000;0.000;2023-04-03T06:20:02;5.03;;;0.75;;
35977;SDS011;22056;0.000;0.000;2023-04-03T06:22:28;1.17;;;0.55;;
35977;SDS011;22056;0.000;0.000;2023-04-03T06:24:55;2.85;;;0.50;;
35977;SDS011;22056;0.000;0.000;2023-04-03T06:27:21;2.13;;;0.45;;
35977;SDS011;22056;0.000;0.000;2023-04-03T06:29:47;2.60;;;0.80;;
35977;SDS011;22056;0.000;0.000;2023-04-03T06:32:14;1.17;;;0.65;;
35977;SDS011;22056;0.000;0.000;2023-04-03T06:34:41;1.40;;;0.40;;
35977;SDS011;22056;0.000;0.000;2023-04-03T06:37:10;3.88;;;0.68;;
35977;SDS011;22056;0.000;0.000;2023-04-03T06:39:40;2.28;;;0.50;;
35977;SDS011;22056;0.000;0.000;2023-04-03T06:42:07;2.42;;;0.60;;
35977;SDS011;22056;0.000;0.000;2023-04-03T06:44:33;3.03;;;0.98;;
35977;SDS011;22056;0.000;0.000;2023-04-03T06:47:00;0.77;;;0.50;;
35977;SDS011;22056;0.000;0.000;2023-04-03T06:49:27;2.47;;;0.60;;
35977;SDS011;22056;0.000;0.000;2023-04-03T06:51:53;6.10;;;0.68;;
35977;SDS011;22056;0.000;0.000;2023-04-03T06:54:21;3.05;;;0.60;;
35977;SDS011;22056;0.000;0.000;2023-04-03T06:56:47;1.65;;;0.60;;
35977;SDS011;22056;0.000;0.000;2023-04-03T06:59:14;1.80;;;0.60;;
35977;SDS011;22056;0.000;0.000;2023-04-03T07:01:40;3.28;;;0.77;;
35977;SDS011;22056;0.000;0.000;2023-04-03T07:04:07;4.30;;;0.73;;
35977;SDS011;22056;0.000;0.000;2023-04-03T07:06:33;4.07;;;0.70;;
35977;SDS011;22056;0.000;0.000;2023-04-03T07:09:00;1.20;;;0.60;;
35977;SDS011;22056;0.000;0.000;2023-04-03T07:11:27;2.05;;;0.50;;
35977;SDS011;22056;0.000;0.000;2023-04-03T07:13:53;1.77;;;0.60;;
35977;SDS011;22056;0.000;0.000;2023-04-03T07:16:20;3.53;;;0.70;;
35977;SDS011;22056;0.000;0.000;2023-04-03T07:18:46;2.95;;;0.70;;
35977;SDS011;22056;0.000;0.000;2023-04-03T07:21:12;5.25;;;0.60;;
35977;SDS011;22056;0.000;0.000;2023-04-03T07:23:38;1.77;;;0.60;;
35977;SDS011;22056;0.000;0.000;2023-04-03T07:26:04;3.40;;;0.70;;
35977;SDS011;22056;0.000;0.000;2023-04-03T07:28:31;4.07;;;0.60;;
35977;SDS011;22056;0.000;0.000;2023-04-03T07:31:02;2.42;;;0.63;;
35977;SDS011;22056;0.000;0.000;2023-04-03T07:33:28;5.32;;;1.13;;
35977;SDS011;22056;0.000;0.000;2023-04-03T07:35:56;2.97;;;0.60;;
35977;SDS011;22056;0.000;0.000;2023-04-03T07:38:22;3.28;;;0.65;;
35977;SDS011;22056;0.000;0.000;2023-04-03T07:40:48;2.78;;;0.50;;
35977;SDS011;22056;0.000;0.000;2023-04-03T07:43:16;3.92;;;0.60;;
35977;SDS011;22056;0.000;0.000;2023-04-03T07:45:43;2.92;;;0.40;;
35977;SDS011;22056;0.000;0.000;2023-04-03T07:48:10;4.68;;;0.50;;
35977;SDS011;22056;0.000;0.000;2023-04-03T07:50:36;3.13;;;0.60;;
35977;SDS011;22056;0.000;0.000;2023-04-03T07:53:03;1.92;;;0.70;;
35977;SDS011;22056;0.000;0.000;2023-04-03T07:55:29;3.28;;;0.60;;
35977;SDS011;22056;0.000;0.000;2023-04-03T07:57:57;4.60;;;1.02;;
35977;SDS011;22056;0.000;0.000;2023-04-03T08:00:23;2.53;;;0.60;;
35977;SDS011;22056;0.000;0.000;2023-04-03T08:02:50;2.90;;;0.45;;
35977;SDS011;22056;0.000;0.000;2023-04-03T08:05:19;5.25;;;0.70;;
35977;SDS011;22056;0.000;0.000;2023-04-03T08:07:46;2.88;;;0.50;;
35977;SDS011;22056;0.000;0.000;2023-04-03T08:10:13;3.03;;;0.57;;
35977;SDS011;22056;0.000;0.000;2023-04-03T08:12:39;2.22;;;0.95;;
35977;SDS011;22056;0.000;0.000;2023-04-03T08:15:05;3.65;;;0.70;;
35977;SDS011;22056;0.000;0.000;2023-04-03T08:17:33;4.10;;;0.50;;
35977;SDS011;22056;0.000;0.000;2023-04-03T08:19:59;2.33;;;0.68;;
35977;SDS011;22056;0.000;0.000;2023-04-03T08:22:26;2.08;;;0.68;;
35977;SDS011;22056;0.000;0.000;2023-04-03T08:24:52;2.58;;;0.80;;
35977;SDS011;22056;0.000;0.000;2023-04-03T08:27:18;3.10;;;0.70;;
35977;SDS011;22056;0.000;0.000;2023-04-03T08:29:44;5.05;;;0.70;;
35977;SDS011;22056;0.000;0.000;2023-04-03T08:32:10;3.03;;;0.43;;
35977;SDS011;22056;0.000;0.000;2023-04-03T08:34:37;4.57;;;1.00;;
35977;SDS011;22056;0.000;0.000;2023-04-03T08:37:04;3.67;;;0.60;;
35977;SDS011;22056;0.000;0.000;2023-04-03T08:39:31;4.35;;;0.80;;
35977;SDS011;22056;0.000;0.000;2023-04-03T08:41:57;4.03;;;0.80;;
35977;SDS011;22056;0.000;0.000;2023-04-03T08:49:20;3.47;;;0.57;;
35977;SDS011;22056;0.000;0.000;2023-04-03T08:51:47;2.13;;;0.55;;
35977;SDS011;22056;0.000;0.000;2023-04-03T08:54:29;5.80;;;0.60;;
35977;SDS011;22056;0.000;0.000;2023-04-03T08:56:56;2.97;;;0.65;;
35977;SDS011;22056;0.000;0.000;2023-04-03T08:59:28;6.38;;;0.73;;
35977;SDS011;22056;0.000;0.000;2023-04-03T09:01:56;1.80;;;0.50;;
35977;SDS011;22056;0.000;0.000;2023-04-03T09:04:23;4.88;;;0.52;;
35977;SDS011;22056;0.000;0.000;2023-04-03T09:06:54;4.65;;;0.80;;
35977;SDS011;22056;0.000;0.000;2023-04-03T09:09:30;1.52;;;0.70;;
35977;SDS011;22056;0.000;0.000;2023-04-03T09:14:33;2.05;;;0.50;;
35977;SDS011;22056;0.000;0.000;2023-04-03T09:22:26;2.78;;;0.50;;
35977;SDS011;22056;0.000;0.000;2023-04-03T09:27:22;1.08;;;0.60;;
35977;SDS011;22056;0.000;0.000;2023-04-03T09:29:48;4.55;;;0.40;;
35977;SDS011;22056;0.000;0.000;2023-04-03T09:32:21;0.95;;;0.50;;
35977;SDS011;22056;0.000;0.000;2023-04-03T09:34:47;2.03;;;0.70;;
35977;SDS011;22056;0.000;0.000;2023-04-03T09:42:59;1.77;;;0.60;;
35977;SDS011;22056;0.000;0.000;2023-04-03T09:45:28;4.15;;;0.65;;
35977;SDS011;22056;0.000;0.000;2023-04-03T09:53:35;2.35;;;0.75;;
35977;SDS011;22056;0.000;0.000;2023-04-03T09:56:03;4.13;;;0.60;;
35977;SDS011;22056;0.000;0.000;2023-04-03T09:58:33;3.95;;;0.70;;
35977;SDS011;22056;0.000;0.000;2023-04-03T10:01:02;2.95;;;0.65;;
35977;SDS011;22056;0.000;0.000;2023-04-03T10:05:54;2.95;;;0.60;;
35977;SDS011;22056;0.000;0.000;2023-04-03T10:08:24;1.88;;;0.60;;
35977;SDS011;22056;0.000;0.000;2023-04-03T10:11:11;2.35;;;0.60;;
35977;SDS011;22056;0.000;0.000;2023-04-03T10:13:49;3.58;;;0.73;;
35977;SDS011;22056;0.000;0.000;2023-04-03T10:16:16;2.67;;;0.68;;
35977;SDS011;22056;0.000;0.000;2023-04-03T10:18:49;3.78;;;0.95;;
35977;SDS011;22056;0.000;0.000;2023-04-03T10:26:51;5.20;;;0.60;;
35977;SDS011;22056;0.000;0.000;2023-04-03T10:34:35;2.47;;;0.40;;
35977;SDS011;22056;0.000;0.000;2023-04-03T10:42:03;2.08;;;0.50;;
35977;SDS011;22056;0.000;0.000;2023-04-03T10:47:12;1.50;;;0.60;;
35977;SDS011;22056;0.000;0.000;2023-04-03T10:57:30;1.58;;;0.57;;
35977;SDS011;22056;0.000;0.000;2023-04-03T10:59:57;2.55;;;0.70;;
35977;SDS011;22056;0.000;0.000;2023-04-03T11:04:52;0.68;;;0.47;;
35977;SDS011;22056;0.000;0.000;2023-04-03T11:07:29;1.80;;;0.60;;
35977;SDS011;22056;0.000;0.000;2023-04-03T11:10:03;2.40;;;0.40;;
35977;SDS011;22056;0.000;0.000;2023-04-03T11:12:47;5.28;;;0.82;;
35977;SDS011;22056;0.000;0.000;2023-04-03T11:15:16;1.48;;;0.55;;
35977;SDS011;22056;0.000;0.000;2023-04-03T11:17:45;1.80;;;0.68;;
35977;SDS011;22056;0.000;0.000;2023-04-03T11:22:43;1.52;;;0.57;;
35977;SDS011;22056;0.000;0.000;2023-04-03T11:35:20;1.52;;;0.40;;
35977;SDS011;22056;0.000;0.000;2023-04-03T11:37:48;2.45;;;0.60;;
35977;SDS011;22056;0.000;0.000;2023-04-03T11:42:46;2.83;;;0.55;;
35977;SDS011;22056;0.000;0.000;2023-04-03T11:47:48;0.82;;;0.40;;
35977;SDS011;22056;0.000;0.000;2023-04-03T11:53:08;4.25;;;0.60;;
35977;SDS011;22056;0.000;0.000;2023-04-03T12:00:54;5.35;;;0.65;;
35977;SDS011;22056;0.000;0.000;2023-04-03T12:03:30;0.90;;;0.50;;
35977;SDS011;22056;0.000;0.000;2023-04-03T12:16:53;2.10;;;0.47;;
35977;SDS011;22056;0.000;0.000;2023-04-03T12:26:46;1.83;;;0.50;;
35977;SDS011;22056;0.000;0.000;2023-04-03T12:32:22;1.50;;;0.63;;
35977;SDS011;22056;0.000;0.000;2023-04-03T12:40:34;3.15;;;0.93;;
35977;SDS011;22056;0.000;0.000;2023-04-03T12:45:23;1.85;;;0.80;;
35977;SDS011;22056;0.000;0.000;2023-04-03T12:47:54;11.20;;;0.95;;
35977;SDS011;22056;0.000;0.000;2023-04-03T12:50:25;10.20;;;1.33;;
35977;SDS011;22056;0.000;0.000;2023-04-03T12:53:05;8.10;;;1.55;;
35977;SDS011;22056;0.000;0.000;2023-04-03T12:55:32;7.80;;;1.27;;
35977;SDS011;22056;0.000;0.000;2023-04-03T12:58:20;12.05;;;1.50;;
35977;SDS011;22056;0.000;0.000;2023-04-03T13:00:58;10.38;;;1.90;;
35977;SDS011;22056;0.000;0.000;2023-04-03T13:03:25;9.50;;;1.58;;
35977;SDS011;22056;0.000;0.000;2023-04-03T13:05:53;2.17;;;0.60;;
35977;SDS011;22056;0.000;0.000;2023-04-03T13:08:20;6.40;;;0.80;;
35977;SDS011;22056;0.000;0.000;2023-04-03T13:10:51;2.33;;;0.70;;
35977;SDS011;22056;0.000;0.000;2023-04-03T13:13:18;2.67;;;0.40;;
35977;SDS011;22056;0.000;0.000;2023-04-03T13:15:45;1.38;;;0.60;;
35977;SDS011;22056;0.000;0.000;2023-04-03T13:18:33;1.80;;;0.50;;
35977;SDS011;22056;0.000;0.000;2023-04-03T13:21:13;3.30;;;0.57;;
35977;SDS011;22056;0.000;0.000;2023-04-03T13:23:43;2.65;;;0.70;;
35977;SDS011;22056;0.000;0.000;2023-04-03T13:26:10;2.00;;;0.50;;
35977;SDS011;22056;0.000;0.000;2023-04-03T13:28:38;3.78;;;0.50;;
35977;SDS011;22056;0.000;0.000;2023-04-03T13:31:17;2.90;;;0.95;;
35977;SDS011;22056;0.000;0.000;2023-04-03T13:33:58;3.45;;;0.60;;
35977;SDS011;22056;0.000;0.000;2023-04-03T13:36:29;2.33;;;0.70;;
35977;SDS011;22056;0.000;0.000;2023-04-03T13:43:55;2.67;;;0.70;;
35977;SDS011;22056;0.000;0.000;2023-04-03T13:46:23;3.60;;;0.60;;
35977;SDS011;22056;0.000;0.000;2023-04-03T13:48:50;5.18;;;0.68;;
35977;SDS011;22056;0.000;0.000;2023-04-03T13:51:18;7.28;;;0.98;;
35977;SDS011;22056;0.000;0.000;2023-04-03T13:53:47;3.20;;;0.80;;
35977;SDS011;22056;0.000;0.000;2023-04-03T13:58:55;2.97;;;0.82;;
35977;SDS011;22056;0.000;0.000;2023-04-03T14:01:22;6.13;;;0.70;;
35977;SDS011;22056;0.000;0.000;2023-04-03T14:03:53;2.60;;;0.63;;
35977;SDS011;22056;0.000;0.000;2023-04-03T14:06:20;3.00;;;0.80;;
35977;SDS011;22056;0.000;0.000;2023-04-03T14:08:47;4.40;;;0.70;;
35977;SDS011;22056;0.000;0.000;2023-04-03T14:11:24;3.92;;;0.60;;
35977;SDS011;22056;0.000;0.000;2023-04-03T14:13:52;1.67;;;0.60;;
35977;SDS011;22056;0.000;0.000;2023-04-03T14:16:20;7.30;;;0.80;;
35977;SDS011;22056;0.000;0.000;2023-04-03T14:18:47;2.22;;;0.60;;
35977;SDS011;22056;0.000;0.000;2023-04-03T14:21:14;3.88;;;0.60;;
35977;SDS011;22056;0.000;0.000;2023-04-03T14:23:41;2.53;;;0.80;;
35977;SDS011;22056;0.000;0.000;2023-04-03T14:26:14;7.18;;;1.00;;
35977;SDS011;22056;0.000;0.000;2023-04-03T14:28:41;5.68;;;0.88;;
35977;SDS011;22056;0.000;0.000;2023-04-03T14:31:09;5.03;;;0.70;;
35977;SDS011;22056;0.000;0.000;2023-04-03T14:33:36;3.70;;;1.00;;
35977;SDS011;22056;0.000;0.000;2023-04-03T14:36:05;1.52;;;0.50;;
35977;SDS011;22056;0.000;0.000;2023-04-03T14:38:37;2.10;;;0.52;;
35977;SDS011;22056;0.000;0.000;2023-04-03T14:41:03;2.90;;;0.88;;
35977;SDS011;22056;0.000;0.000;2023-04-03T14:43:29;4.03;;;0.90;;
35977;SDS011;22056;0.000;0.000;2023-04-03T14:45:55;2.55;;;0.80;;
35977;SDS011;22056;0.000;0.000;2023-04-03T14:48:22;2.17;;;0.73;;
35977;SDS011;22056;0.000;0.000;2023-04-03T14:50:50;2.92;;;0.90;;
35977;SDS011;22056;0.000;0.000;2023-04-03T14:53:16;2.47;;;0.85;;
35977;SDS011;22056;0.000;0.000;2023-04-03T14:55:46;1.10;;;0.50;;
35977;SDS011;22056;0.000;0.000;2023-04-03T14:58:13;1.92;;;0.60;;
35977;SDS011;22056;0.000;0.000;2023-04-03T15:00:40;3.75;;;0.75;;
35977;SDS011;22056;0.000;0.000;2023-04-03T15:03:08;2.13;;;0.70;;
35977;SDS011;22056;0.000;0.000;2023-04-03T15:05:35;5.43;;;0.88;;
35977;SDS011;22056;0.000;0.000;2023-04-03T15:08:02;2.25;;;0.80;;
35977;SDS011;22056;0.000;0.000;2023-04-03T15:10:29;2.70;;;0.70;;
35977;SDS011;22056;0.000;0.000;2023-04-03T15:12:56;3.03;;;0.60;;
35977;SDS011;22056;0.000;0.000;2023-04-03T15:15:23;3.60;;;0.90;;
35977;SDS011;22056;0.000;0.000;2023-04-03T15:17:54;1.95;;;0.80;;
35977;SDS011;22056;0.000;0.000;2023-04-03T15:20:23;1.80;;;0.50;;
35977;SDS011;22056;0.000;0.000;2023-04-03T15:22:49;2.38;;;0.40;;
35977;SDS011;22056;0.000;0.000;2023-04-03T15:25:15;3.15;;;0.50;;
35977;SDS011;22056;0.000;0.000;2023-04-03T15:27:43;4.90;;;0.60;;
35977;SDS011;22056;0.000;0.000;2023-04-03T15:30:16;1.50;;;0.80;;
35977;SDS011;22056;0.000;0.000;2023-04-03T15:32:43;2.22;;;0.57;;
35977;SDS011;22056;0.000;0.000;2023-04-03T15:35:09;1.38;;;0.50;;
35977;SDS011;22056;0.000;0.000;2023-04-03T15:37:35;2.08;;;0.50;;
35977;SDS011;22056;0.000;0.000;2023-04-03T15:40:02;3.05;;;0.80;;
35977;SDS011;22056;0.000;0.000;2023-04-03T15:42:28;1.42;;;0.60;;
35977;SDS011;22056;0.000;0.000;2023-04-03T15:44:55;2.25;;;0.60;;
35977;SDS011;22056;0.000;0.000;2023-04-03T15:47:21;2.03;;;0.60;;
35977;SDS011;22056;0.000;0.000;2023-04-03T15:49:47;3.15;;;0.90;;
35977;SDS011;22056;0.000;0.000;2023-04-03T15:52:13;1.08;;;0.60;;
35977;SDS011;22056;0.000;0.000;2023-04-03T15:54:39;3.38;;;1.00;;
35977;SDS011;22056;0.000;0.000;2023-04-03T15:57:05;2.75;;;0.50;;
35977;SDS011;22056;0.000;0.000;2023-04-03T15:59:32;4.18;;;0.88;;
35977;SDS011;22056;0.000;0.000;2023-04-03T16:01:58;5.15;;;0.52;;
35977;SDS011;22056;0.000;0.000;2023-04-03T16:04:26;2.38;;;0.60;;
35977;SDS011;22056;0.000;0.000;2023-04-03T16:06:52;2.33;;;0.70;;
35977;SDS011;22056;0.000;0.000;2023-04-03T16:09:18;3.25;;;0.73;;
35977;SDS011;22056;0.000;0.000;2023-04-03T16:11:44;3.83;;;0.77;;
35977;SDS011;22056;0.000;0.000;2023-04-03T16:14:11;2.70;;;0.50;;
35977;SDS011;22056;0.000;0.000;2023-04-03T16:16:37;1.75;;;0.65;;
35977;SDS011;22056;0.000;0.000;2023-04-03T16:19:03;3.65;;;0.70;;
35977;SDS011;22056;0.000;0.000;2023-04-03T16:21:31;2.85;;;0.80;;
35977;SDS011;22056;0.000;0.000;2023-04-03T16:23:57;4.18;;;0.50;;
35977;SDS011;22056;0.000;0.000;2023-04-03T16:26:24;2.85;;;0.60;;
35977;SDS011;22056;0.000;0.000;2023-04-03T16:28:50;2.70;;;0.68;;
35977;SDS011;22056;0.000;0.000;2023-04-03T16:31:16;3.47;;;0.75;;
35977;SDS011;22056;0.000;0.000;2023-04-03T16:33:42;3.20;;;0.75;;
35977;SDS011;22056;0.000;0.000;2023-04-03T16:36:09;0.55;;;0.43;;
35977;SDS011;22056;0.000;0.000;2023-04-03T16:38:35;1.65;;;0.85;;
35977;SDS011;22056;0.000;0.000;2023-04-03T16:41:01;3.85;;;0.90;;
35977;SDS011;22056;0.000;0.000;2023-04-03T16:43:30;2.95;;;0.70;;
35977;SDS011;22056;0.000;0.000;2023-04-03T16:45:56;4.90;;;1.10;;
35977;SDS011;22056;0.000;0.000;2023-04-03T16:48:22;3.20;;;0.60;;
35977;SDS011;22056;0.000;0.000;2023-04-03T16:50:49;4.28;;;0.52;;
35977;SDS011;22056;0.000;0.000;2023-04-03T16:53:19;2.30;;;0.75;;
35977;SDS011;22056;0.000;0.000;2023-04-03T16:55:45;5.00;;;1.05;;
35977;SDS011;22056;0.000;0.000;2023-04-03T16:58:11;3.35;;;0.52;;
35977;SDS011;22056;0.000;0.000;2023-04-03T17:00:38;2.10;;;0.50;;
35977;SDS011;22056;0.000;0.000;2023-04-03T17:03:04;4.35;;;0.90;;
35977;SDS011;22056;0.000;0.000;2023-04-03T17:05:30;3.22;;;1.00;;
35977;SDS011;22056;0.000;0.000;2023-04-03T17:07:56;2.15;;;0.70;;
35977;SDS011;22056;0.000;0.000;2023-04-03T17:10:22;3.20;;;0.63;;